Ayrshire, Iowa
Current Conditions -  °F | °C
As of 12:53 AM on Sunday 21 Dec 2014 (Local Time) from KSPW Reporting Station
Haze Haze  
Wind Chill: -5°   Ceiling: 300
Heat Index:   Visibility: 3mi
Dew Point: -1°   Wind: 13mph
Humidity: 92%   Direction: 180°S
Pressure: 29.99"   Gusts: NA
Location:  43.04°N, 94.83°W
Report Text: KSPW 210653Z AUTO 18011KT 3SM BR OVC003 00/M01 A2999 RMK AO2 SLP169 T00001011 TSNO
Loading
Personal Weather Stations






























Interactive Weather Map New forecast layout! Learn more

10-Day Weather Forecast

Advertisements
Track Severe Weather on mobile